sensor_id;sensor_type;location;lat;lon;timestamp;temperature;humidity
43842;DHT22;29495;49.970;20.842;2023-07-31T06:58:00;25.20;99.90
43842;DHT22;29495;49.970;20.842;2023-07-31T07:00:30;24.80;99.90
43842;DHT22;29495;49.970;20.842;2023-07-31T07:02:56;24.50;99.90
43842;DHT22;29495;49.970;20.842;2023-07-31T07:05:21;24.40;99.90
43842;DHT22;29495;49.970;20.842;2023-07-31T07:07:48;24.50;99.90
43842;DHT22;29495;49.970;20.842;2023-07-31T07:10:14;24.40;99.90
43842;DHT22;29495;49.970;20.842;2023-07-31T07:12:40;24.30;99.90
43842;DHT22;29495;49.970;20.842;2023-07-31T07:15:06;25.10;99.90
43842;DHT22;29495;49.970;20.842;2023-07-31T07:17:32;25.90;99.90
43842;DHT22;29495;49.970;20.842;2023-07-31T07:19:58;26.90;99.90
43842;DHT22;29495;49.970;20.842;2023-07-31T07:22:24;28.20;96.80
43842;DHT22;29495;49.970;20.842;2023-07-31T07:24:51;28.60;83.20
43842;DHT22;29495;49.970;20.842;2023-07-31T07:27:17;29.00;82.00
43842;DHT22;29495;49.970;20.842;2023-07-31T07:29:43;29.00;78.80
43842;DHT22;29495;49.970;20.842;2023-07-31T07:32:09;28.70;81.30
43842;DHT22;29495;49.970;20.842;2023-07-31T07:34:35;28.20;84.60
43842;DHT22;29495;49.970;20.842;2023-07-31T07:37:00;28.50;80.00
43842;DHT22;29495;49.970;20.842;2023-07-31T07:39:26;29.40;80.20
43842;DHT22;29495;49.970;20.842;2023-07-31T07:41:52;29.20;75.60
43842;DHT22;29495;49.970;20.842;2023-07-31T07:44:19;28.50;75.90
43842;DHT22;29495;49.970;20.842;2023-07-31T07:46:45;28.60;76.40
43842;DHT22;29495;49.970;20.842;2023-07-31T07:49:11;28.40;81.60
43842;DHT22;29495;49.970;20.842;2023-07-31T07:51:37;28.10;88.80
43842;DHT22;29495;49.970;20.842;2023-07-31T07:54:03;27.60;86.40
43842;DHT22;29495;49.970;20.842;2023-07-31T07:56:29;27.10;94.40
43842;DHT22;29495;49.970;20.842;2023-07-31T07:58:55;26.90;94.50
43842;DHT22;29495;49.970;20.842;2023-07-31T08:01:21;26.80;97.20
43842;DHT22;29495;49.970;20.842;2023-07-31T08:03:47;26.70;95.40
43842;DHT22;29495;49.970;20.842;2023-07-31T08:06:14;26.60;97.00
43842;DHT22;29495;49.970;20.842;2023-07-31T08:08:40;26.60;95.40
43842;DHT22;29495;49.970;20.842;2023-07-31T08:11:06;26.20;96.70
43842;DHT22;29495;49.970;20.842;2023-07-31T08:13:32;26.20;97.90
43842;DHT22;29495;49.970;20.842;2023-07-31T08:15:58;26.10;98.10
43842;DHT22;29495;49.970;20.842;2023-07-31T08:18:24;26.20;99.90
43842;DHT22;29495;49.970;20.842;2023-07-31T08:20:50;26.60;97.30
43842;DHT22;29495;49.970;20.842;2023-07-31T08:23:18;26.30;99.70
43842;DHT22;29495;49.970;20.842;2023-07-31T08:25:52;26.60;99.40
43842;DHT22;29495;49.970;20.842;2023-07-31T08:28:20;26.90;99.10
43842;DHT22;29495;49.970;20.842;2023-07-31T08:30:46;27.00;97.60
43842;DHT22;29495;49.970;20.842;2023-07-31T08:33:12;26.60;94.80
43842;DHT22;29495;49.970;20.842;2023-07-31T08:35:38;26.30;96.10
43842;DHT22;29495;49.970;20.842;2023-07-31T08:38:04;26.50;96.60
43842;DHT22;29495;49.970;20.842;2023-07-31T08:40:30;27.00;98.20
43842;DHT22;29495;49.970;20.842;2023-07-31T08:42:56;26.50;96.20
43842;DHT22;29495;49.970;20.842;2023-07-31T08:45:24;26.30;96.90
43842;DHT22;29495;49.970;20.842;2023-07-31T08:47:51;26.20;99.90
43842;DHT22;29495;49.970;20.842;2023-07-31T08:50:18;26.20;99.90
43842;DHT22;29495;49.970;20.842;2023-07-31T08:52:49;25.80;99.90
43842;DHT22;29495;49.970;20.842;2023-07-31T08:55:15;25.40;99.70
43842;DHT22;29495;49.970;20.842;2023-07-31T08:57:41;25.40;98.90
43842;DHT22;29495;49.970;20.842;2023-07-31T09:00:08;25.40;99.90
43842;DHT22;29495;49.970;20.842;2023-07-31T09:02:38;25.90;99.90
43842;DHT22;29495;49.970;20.842;2023-07-31T09:05:07;26.00;99.90
43842;DHT22;29495;49.970;20.842;2023-07-31T09:07:34;25.50;99.90
43842;DHT22;29495;49.970;20.842;2023-07-31T09:10:00;25.10;99.90
43842;DHT22;29495;49.970;20.842;2023-07-31T09:12:26;24.90;99.90
43842;DHT22;29495;49.970;20.842;2023-07-31T09:14:52;25.00;99.90
43842;DHT22;29495;49.970;20.842;2023-07-31T09:17:28;24.70;99.90
43842;DHT22;29495;49.970;20.842;2023-07-31T09:19:54;24.40;99.90
43842;DHT22;29495;49.970;20.842;2023-07-31T09:22:30;24.20;99.90
43842;DHT22;29495;49.970;20.842;2023-07-31T09:24:57;24.10;99.90
43842;DHT22;29495;49.970;20.842;2023-07-31T09:27:33;23.80;99.90
43842;DHT22;29495;49.970;20.842;2023-07-31T09:30:11;23.90;99.90
43842;DHT22;29495;49.970;20.842;2023-07-31T09:32:37;23.80;99.90
43842;DHT22;29495;49.970;20.842;2023-07-31T09:37:51;24.10;99.90
43842;DHT22;29495;49.970;20.842;2023-07-31T09:40:30;24.20;99.90
43842;DHT22;29495;49.970;20.842;2023-07-31T09:42:57;24.40;99.90
43842;DHT22;29495;49.970;20.842;2023-07-31T09:45:24;24.40;99.90
43842;DHT22;29495;49.970;20.842;2023-07-31T09:47:50;24.60;99.90
43842;DHT22;29495;49.970;20.842;2023-07-31T09:50:16;24.40;99.90
43842;DHT22;29495;49.970;20.842;2023-07-31T09:52:42;24.30;99.90
43842;DHT22;29495;49.970;20.842;2023-07-31T09:55:09;24.30;99.90
43842;DHT22;29495;49.970;20.842;2023-07-31T09:57:39;24.20;99.90
43842;DHT22;29495;49.970;20.842;2023-07-31T10:00:06;24.30;99.90
43842;DHT22;29495;49.970;20.842;2023-07-31T10:02:38;24.50;99.90
43842;DHT22;29495;49.970;20.842;2023-07-31T10:05:05;24.60;99.90
43842;DHT22;29495;49.970;20.842;2023-07-31T10:07:34;24.50;99.90
43842;DHT22;29495;49.970;20.842;2023-07-31T10:10:01;24.80;99.90
43842;DHT22;29495;49.970;20.842;2023-07-31T10:12:29;25.00;99.90
43842;DHT22;29495;49.970;20.842;2023-07-31T10:14:57;25.40;99.90
43842;DHT22;29495;49.970;20.842;2023-07-31T10:17:25;25.40;99.90
43842;DHT22;29495;49.970;20.842;2023-07-31T10:19:51;25.30;99.90
43842;DHT22;29495;49.970;20.842;2023-07-31T10:22:19;25.20;99.90
43842;DHT22;29495;49.970;20.842;2023-07-31T10:24:45;25.10;99.90
43842;DHT22;29495;49.970;20.842;2023-07-31T10:27:13;25.10;99.90
43842;DHT22;29495;49.970;20.842;2023-07-31T10:29:40;25.00;99.90
43842;DHT22;29495;49.970;20.842;2023-07-31T10:32:07;25.40;99.90
43842;DHT22;29495;49.970;20.842;2023-07-31T10:34:36;25.60;99.90
43842;DHT22;29495;49.970;20.842;2023-07-31T10:40:00;25.60;99.90
43842;DHT22;29495;49.970;20.842;2023-07-31T10:42:33;25.50;98.10
43842;DHT22;29495;49.970;20.842;2023-07-31T10:45:01;25.40;98.40
43842;DHT22;29495;49.970;20.842;2023-07-31T10:47:27;25.50;99.40
43842;DHT22;29495;49.970;20.842;2023-07-31T10:49:59;25.40;99.40
43842;DHT22;29495;49.970;20.842;2023-07-31T10:52:36;25.20;99.90
43842;DHT22;29495;49.970;20.842;2023-07-31T10:55:23;25.30;99.30
43842;DHT22;29495;49.970;20.842;2023-07-31T10:57:49;25.60;99.90
43842;DHT22;29495;49.970;20.842;2023-07-31T11:00:19;25.80;99.90
43842;DHT22;29495;49.970;20.842;2023-07-31T11:10:48;25.70;99.90
43842;DHT22;29495;49.970;20.842;2023-07-31T11:13:14;25.90;98.40
43842;DHT22;29495;49.970;20.842;2023-07-31T11:15:40;25.80;98.50
43842;DHT22;29495;49.970;20.842;2023-07-31T11:18:07;26.20;98.90
43842;DHT22;29495;49.970;20.842;2023-07-31T11:20:34;26.00;92.20
43842;DHT22;29495;49.970;20.842;2023-07-31T11:23:05;25.90;95.30
43842;DHT22;29495;49.970;20.842;2023-07-31T11:25:31;26.10;96.30
43842;DHT22;29495;49.970;20.842;2023-07-31T11:28:09;26.30;94.40
43842;DHT22;29495;49.970;20.842;2023-07-31T11:30:35;26.60;95.80
43842;DHT22;29495;49.970;20.842;2023-07-31T11:33:02;26.60;93.30
43842;DHT22;29495;49.970;20.842;2023-07-31T11:35:34;26.50;91.70
43842;DHT22;29495;49.970;20.842;2023-07-31T11:38:00;26.60;90.10
43842;DHT22;29495;49.970;20.842;2023-07-31T11:40:26;26.90;95.90
43842;DHT22;29495;49.970;20.842;2023-07-31T11:42:55;27.00;90.20
43842;DHT22;29495;49.970;20.842;2023-07-31T11:45:24;27.10;90.20
43842;DHT22;29495;49.970;20.842;2023-07-31T11:47:50;27.20;89.10
43842;DHT22;29495;49.970;20.842;2023-07-31T11:50:27;27.20;93.20
43842;DHT22;29495;49.970;20.842;2023-07-31T11:53:22;27.20;86.90
43842;DHT22;29495;49.970;20.842;2023-07-31T11:56:21;27.20;90.00
43842;DHT22;29495;49.970;20.842;2023-07-31T11:59:10;27.00;76.80
43842;DHT22;29495;49.970;20.842;2023-07-31T12:01:53;27.20;78.00
43842;DHT22;29495;49.970;20.842;2023-07-31T12:04:19;27.00;75.60
43842;DHT22;29495;49.970;20.842;2023-07-31T12:06:47;26.80;78.40
43842;DHT22;29495;49.970;20.842;2023-07-31T12:09:19;26.80;78.10
43842;DHT22;29495;49.970;20.842;2023-07-31T12:11:46;26.80;78.60
43842;DHT22;29495;49.970;20.842;2023-07-31T12:14:30;27.00;84.10
43842;DHT22;29495;49.970;20.842;2023-07-31T12:16:57;27.00;82.50
43842;DHT22;29495;49.970;20.842;2023-07-31T12:19:26;27.20;80.80
43842;DHT22;29495;49.970;20.842;2023-07-31T12:22:00;27.10;78.20
43842;DHT22;29495;49.970;20.842;2023-07-31T12:24:35;26.90;78.70
43842;DHT22;29495;49.970;20.842;2023-07-31T12:27:08;27.00;77.40
43842;DHT22;29495;49.970;20.842;2023-07-31T12:29:46;27.30;82.60
43842;DHT22;29495;49.970;20.842;2023-07-31T12:32:20;27.30;78.60
43842;DHT22;29495;49.970;20.842;2023-07-31T12:34:46;27.20;78.10
43842;DHT22;29495;49.970;20.842;2023-07-31T12:37:15;27.30;85.70
43842;DHT22;29495;49.970;20.842;2023-07-31T12:40:02;27.30;78.80
43842;DHT22;29495;49.970;20.842;2023-07-31T12:42:41;27.10;70.50
43842;DHT22;29495;49.970;20.842;2023-07-31T12:45:09;26.90;68.70
43842;DHT22;29495;49.970;20.842;2023-07-31T12:47:35;27.10;76.30
43842;DHT22;29495;49.970;20.842;2023-07-31T12:50:09;27.10;73.90
43842;DHT22;29495;49.970;20.842;2023-07-31T12:52:35;27.40;77.60
43842;DHT22;29495;49.970;20.842;2023-07-31T12:55:10;27.10;71.00
43842;DHT22;29495;49.970;20.842;2023-07-31T12:58:00;27.30;71.00
43842;DHT22;29495;49.970;20.842;2023-07-31T13:03:38;27.40;73.10
43842;DHT22;29495;49.970;20.842;2023-07-31T13:06:04;27.20;70.20
43842;DHT22;29495;49.970;20.842;2023-07-31T13:08:40;27.00;73.90
43842;DHT22;29495;49.970;20.842;2023-07-31T13:11:21;26.80;72.00
43842;DHT22;29495;49.970;20.842;2023-07-31T13:17:57;26.80;76.30
